createdAt,value
2022-12-24T00:01:22.042Z,11.20
2022-12-24T00:03:50.159Z,11.20
2022-12-24T00:06:21.212Z,11.20
2022-12-24T00:08:49.385Z,11.20
2022-12-24T00:11:17.193Z,11.20
2022-12-24T00:13:44.626Z,11.20
2022-12-24T00:16:12.362Z,11.20
2022-12-24T00:18:45.419Z,11.20
2022-12-24T00:21:15.093Z,11.20
2022-12-24T00:23:43.299Z,11.20
2022-12-24T00:26:11.129Z,11.20
2022-12-24T00:28:38.960Z,11.20
2022-12-24T00:31:12.159Z,11.30
2022-12-24T00:33:40.265Z,11.20
2022-12-24T00:36:09.496Z,11.20
2022-12-24T00:38:37.669Z,11.20
2022-12-24T00:41:24.797Z,11.20
2022-12-24T00:43:54.677Z,11.20
2022-12-24T00:46:23.669Z,11.20
2022-12-24T00:48:51.632Z,11.20
2022-12-24T00:51:20.117Z,11.20
2022-12-24T00:53:48.128Z,11.20
2022-12-24T00:56:16.017Z,11.20
2022-12-24T00:58:43.608Z,11.20
2022-12-24T01:01:11.743Z,11.20
2022-12-24T01:03:39.468Z,11.20
2022-12-24T01:06:12.323Z,11.20
2022-12-24T01:08:40.577Z,11.20
2022-12-24T01:11:09.857Z,11.20
2022-12-24T01:13:38.377Z,11.20
2022-12-24T01:16:15.461Z,11.20
2022-12-24T01:18:43.099Z,11.20
2022-12-24T01:21:10.590Z,11.10
2022-12-24T01:23:38.114Z,11.20
2022-12-24T01:26:05.620Z,11.10
2022-12-24T01:28:33.901Z,11.10
2022-12-24T01:31:01.481Z,11.10
2022-12-24T01:33:30.168Z,11.10
2022-12-24T01:35:57.742Z,11.10
2022-12-24T01:38:25.222Z,11.10
2022-12-24T01:41:11.401Z,11.10
2022-12-24T01:43:38.908Z,11.10
2022-12-24T01:46:20.094Z,11.10
2022-12-24T01:48:55.532Z,11.00
2022-12-24T01:52:01.378Z,11.10
2022-12-24T01:54:31.316Z,11.00
2022-12-24T01:57:13.057Z,11.00
2022-12-24T01:59:46.490Z,11.00
2022-12-24T02:02:14.664Z,11.00
2022-12-24T02:05:09.969Z,10.90
2022-12-24T02:07:37.922Z,11.00
2022-12-24T02:10:08.040Z,11.00
2022-12-24T02:12:37.627Z,11.00
2022-12-24T02:15:08.677Z,11.00
2022-12-24T02:17:48.207Z,11.00
2022-12-24T02:20:46.020Z,11.00
2022-12-24T02:23:22.365Z,11.00
2022-12-24T02:25:52.609Z,11.00
2022-12-24T02:28:35.470Z,11.00
2022-12-24T02:31:08.671Z,10.90
2022-12-24T02:33:48.068Z,11.00
2022-12-24T02:36:34.817Z,11.00
2022-12-24T02:39:06.012Z,11.10
2022-12-24T02:42:00.131Z,11.00
2022-12-24T02:44:30.348Z,11.00
2022-12-24T02:47:00.743Z,11.00
2022-12-24T02:49:28.223Z,11.10
2022-12-24T02:51:55.690Z,11.10
2022-12-24T02:54:23.372Z,11.00
2022-12-24T02:57:21.609Z,11.00
2022-12-24T03:00:12.374Z,11.00
2022-12-24T03:03:12.484Z,11.00
2022-12-24T03:06:05.799Z,11.00
2022-12-24T03:08:45.289Z,11.00
2022-12-24T03:11:15.430Z,11.00
2022-12-24T03:13:43.950Z,10.90
2022-12-24T03:16:21.301Z,10.90
2022-12-24T03:18:50.839Z,10.90
2022-12-24T03:21:22.544Z,10.90
2022-12-24T03:23:50.363Z,10.90
2022-12-24T03:26:20.034Z,10.90
2022-12-24T03:28:49.000Z,10.90
2022-12-24T03:31:18.773Z,10.90
2022-12-24T03:33:46.986Z,10.90
2022-12-24T03:36:14.486Z,10.90
2022-12-24T03:38:42.252Z,10.90
2022-12-24T03:41:10.234Z,10.80
2022-12-24T03:43:37.701Z,10.90
2022-12-24T03:46:08.739Z,10.90
2022-12-24T03:48:37.046Z,10.80
2022-12-24T03:51:05.123Z,10.90
2022-12-24T03:53:32.649Z,10.90
2022-12-24T03:56:00.126Z,10.80
2022-12-24T03:58:27.701Z,10.80
2022-12-24T04:00:55.162Z,10.80
2022-12-24T04:03:23.034Z,10.80
2022-12-24T04:06:04.227Z,10.80
2022-12-24T04:08:32.012Z,10.80
2022-12-24T04:11:03.415Z,10.80
2022-12-24T04:13:33.786Z,10.80
2022-12-24T04:16:07.009Z,10.70
2022-12-24T04:18:35.115Z,10.70
2022-12-24T04:21:02.666Z,10.70
2022-12-24T04:23:35.096Z,10.70
2022-12-24T04:26:04.580Z,10.70
2022-12-24T04:28:33.410Z,10.70
2022-12-24T04:31:05.785Z,10.70
2022-12-24T04:33:33.440Z,10.70
2022-12-24T04:36:02.438Z,10.60
2022-12-24T04:38:30.784Z,10.60
2022-12-24T04:41:06.452Z,10.60
2022-12-24T04:43:33.979Z,10.60
2022-12-24T04:46:10.409Z,10.60
2022-12-24T04:48:38.350Z,10.60
2022-12-24T04:51:07.291Z,10.60
2022-12-24T04:53:36.199Z,10.60
2022-12-24T04:56:04.633Z,10.60
2022-12-24T04:58:32.045Z,10.50
2022-12-24T05:01:07.489Z,10.50
2022-12-24T05:03:35.268Z,10.50
2022-12-24T05:06:08.765Z,10.50
2022-12-24T05:08:36.379Z,10.50
2022-12-24T05:11:04.016Z,10.50
2022-12-24T05:13:39.124Z,10.50
2022-12-24T05:16:12.903Z,10.40
2022-12-24T05:18:40.615Z,10.40
2022-12-24T05:21:15.770Z,10.40
2022-12-24T05:24:02.154Z,10.40
2022-12-24T05:26:36.392Z,10.30
2022-12-24T05:29:05.049Z,10.30
2022-12-24T05:31:34.057Z,10.30
2022-12-24T05:34:03.223Z,10.30
2022-12-24T05:36:31.291Z,10.30
2022-12-24T05:38:59.546Z,10.30
2022-12-24T05:41:27.615Z,10.20
2022-12-24T05:43:55.543Z,10.20
2022-12-24T05:46:24.643Z,10.20
2022-12-24T05:48:53.569Z,10.20
2022-12-24T05:51:22.561Z,10.20
2022-12-24T05:53:51.390Z,10.20
2022-12-24T05:56:24.395Z,10.20
2022-12-24T05:58:53.626Z,10.10
2022-12-24T06:01:22.968Z,10.10
2022-12-24T06:03:51.547Z,10.10
2022-12-24T06:06:22.134Z,10.10
2022-12-24T06:08:50.823Z,10.00
2022-12-24T06:11:20.669Z,10.00
2022-12-24T06:13:48.269Z,10.00
2022-12-24T06:16:18.530Z,10.00
2022-12-24T06:18:46.936Z,10.00
2022-12-24T06:21:15.288Z,10.00
2022-12-24T06:23:44.030Z,10.00
2022-12-24T06:26:20.489Z,10.00
2022-12-24T06:28:49.764Z,10.00
2022-12-24T06:31:20.535Z,9.90
2022-12-24T06:33:48.843Z,9.90
2022-12-24T06:36:26.296Z,9.90
2022-12-24T06:38:55.067Z,9.90
2022-12-24T06:41:23.616Z,9.90
2022-12-24T06:43:52.671Z,9.90
2022-12-24T06:46:21.239Z,9.80
2022-12-24T06:48:49.276Z,9.80
2022-12-24T06:51:20.261Z,9.80
2022-12-24T06:53:51.049Z,9.80
2022-12-24T06:56:20.015Z,9.80
2022-12-24T06:58:48.381Z,9.70
2022-12-24T07:01:19.191Z,9.70
2022-12-24T07:03:47.383Z,9.70
2022-12-24T07:06:23.534Z,9.70
2022-12-24T07:08:51.192Z,9.60
2022-12-24T07:11:18.868Z,9.60
2022-12-24T07:13:47.123Z,9.60
2022-12-24T07:16:15.013Z,9.60
2022-12-24T07:18:42.781Z,9.60
2022-12-24T07:21:10.895Z,9.60
2022-12-24T07:23:38.389Z,9.60
2022-12-24T07:26:07.429Z,9.60
2022-12-24T07:28:34.936Z,9.60
2022-12-24T07:31:02.470Z,9.60
2022-12-24T07:33:30.008Z,9.60
2022-12-24T07:36:06.101Z,9.60
2022-12-24T07:38:35.191Z,9.60
2022-12-24T07:41:02.681Z,9.60
2022-12-24T07:43:32.918Z,9.50
2022-12-24T07:46:00.440Z,9.50
2022-12-24T07:48:29.781Z,9.50
2022-12-24T07:50:57.837Z,9.50
2022-12-24T07:53:27.330Z,9.50
2022-12-24T07:55:55.684Z,9.50
2022-12-24T07:58:23.676Z,9.50
2022-12-24T08:00:57.072Z,9.50
2022-12-24T08:03:25.187Z,9.40
2022-12-24T08:05:53.018Z,9.50
2022-12-24T08:08:21.474Z,9.40
2022-12-24T08:10:49.043Z,9.40
2022-12-24T08:13:17.376Z,9.40
2022-12-24T08:15:45.475Z,9.40
2022-12-24T08:18:13.173Z,9.40
2022-12-24T08:20:41.234Z,9.40
2022-12-24T08:23:09.930Z,9.40
2022-12-24T08:25:38.372Z,9.40
2022-12-24T08:28:06.155Z,9.40
2022-12-24T08:30:34.158Z,9.30
2022-12-24T08:33:02.155Z,9.30
2022-12-24T08:35:29.723Z,9.30
2022-12-24T08:37:57.543Z,9.30
2022-12-24T08:40:25.460Z,9.30
2022-12-24T08:42:53.698Z,9.30
2022-12-24T08:45:21.542Z,9.30
2022-12-24T08:47:49.286Z,9.30
2022-12-24T08:50:17.224Z,9.20
2022-12-24T08:52:44.765Z,9.20
2022-12-24T08:55:12.781Z,9.20
2022-12-24T08:57:40.200Z,9.20
2022-12-24T09:00:09.745Z,9.20
2022-12-24T09:02:37.918Z,9.20
2022-12-24T09:05:06.218Z,9.20
2022-12-24T09:07:33.797Z,9.10
2022-12-24T09:10:01.809Z,9.10
2022-12-24T09:12:29.876Z,9.10
2022-12-24T09:15:03.125Z,9.10
2022-12-24T09:17:34.912Z,9.10
2022-12-24T09:20:03.779Z,9.30
2022-12-24T09:22:31.661Z,9.10
2022-12-24T09:24:59.209Z,9.00
2022-12-24T09:27:26.963Z,9.00
2022-12-24T09:29:54.358Z,9.00
2022-12-24T09:32:21.867Z,9.00
2022-12-24T09:34:49.934Z,9.00
2022-12-24T09:37:17.709Z,9.00
2022-12-24T09:39:45.587Z,9.00
2022-12-24T09:42:53.070Z,9.00
2022-12-24T09:45:28.973Z,9.00
2022-12-24T09:48:21.679Z,9.00
2022-12-24T09:50:49.067Z,9.10
2022-12-24T09:53:23.667Z,9.10
2022-12-24T09:55:56.448Z,9.10
2022-12-24T09:58:30.751Z,9.20
2022-12-24T10:00:58.390Z,9.20
2022-12-24T10:03:26.007Z,9.20
2022-12-24T10:06:12.291Z,9.30
2022-12-24T10:08:42.643Z,9.30
2022-12-24T10:11:24.728Z,9.40
2022-12-24T10:13:55.060Z,9.40
2022-12-24T10:16:37.757Z,9.50
2022-12-24T10:19:29.096Z,9.50
2022-12-24T10:21:59.540Z,9.60
2022-12-24T10:24:52.864Z,9.50
2022-12-24T10:27:26.069Z,9.60
2022-12-24T10:30:01.635Z,9.60
2022-12-24T10:32:34.675Z,9.70
2022-12-24T10:35:17.232Z,9.80
2022-12-24T10:37:49.704Z,9.80
2022-12-24T10:40:39.489Z,9.90
2022-12-24T10:43:24.479Z,9.90
2022-12-24T10:45:59.555Z,10.00
2022-12-24T10:48:53.558Z,10.10
2022-12-24T10:51:40.011Z,10.20
2022-12-24T10:54:27.117Z,10.20
2022-12-24T10:57:01.492Z,10.20
2022-12-24T10:59:34.319Z,10.30
2022-12-24T11:02:02.509Z,10.40
2022-12-24T11:04:32.632Z,10.40
2022-12-24T11:07:17.564Z,10.50
2022-12-24T11:10:14.710Z,10.60
2022-12-24T11:13:05.747Z,10.60
2022-12-24T11:15:36.710Z,10.70
2022-12-24T11:18:13.253Z,10.70
2022-12-24T11:20:41.836Z,10.80
2022-12-24T11:23:16.609Z,10.80
2022-12-24T11:25:49.884Z,10.90
2022-12-24T11:28:23.941Z,10.90
2022-12-24T11:30:59.547Z,11.00
2022-12-24T11:33:27.365Z,11.00
2022-12-24T11:36:06.988Z,11.10
2022-12-24T11:38:35.273Z,11.10
2022-12-24T11:41:12.722Z,11.20
2022-12-24T11:43:46.326Z,11.20
2022-12-24T11:46:15.720Z,11.30
2022-12-24T11:48:43.540Z,11.30
2022-12-24T11:51:26.193Z,11.30
2022-12-24T11:54:15.894Z,11.40
2022-12-24T11:56:54.748Z,11.50
2022-12-24T11:59:44.647Z,11.50
2022-12-24T12:02:24.121Z,11.60
2022-12-24T12:04:57.565Z,11.60
2022-12-24T12:07:31.364Z,11.70
2022-12-24T12:10:18.022Z,11.80
2022-12-24T12:13:14.996Z,11.90
2022-12-24T12:16:14.617Z,12.00
2022-12-24T12:18:49.355Z,12.10
2022-12-24T12:21:25.376Z,12.10
2022-12-24T12:24:03.477Z,12.20
2022-12-24T12:26:33.365Z,12.30
2022-12-24T12:29:21.116Z,12.40
2022-12-24T12:31:51.883Z,12.50
2022-12-24T12:34:25.078Z,12.60
2022-12-24T12:37:01.436Z,12.60
2022-12-24T12:39:31.807Z,12.70
2022-12-24T12:42:19.007Z,12.80
2022-12-24T12:44:46.773Z,12.80
2022-12-24T12:47:53.251Z,12.90
2022-12-24T12:50:57.804Z,13.00
2022-12-24T12:53:45.219Z,13.00
2022-12-24T12:56:30.274Z,13.00
2022-12-24T12:59:19.310Z,13.00
2022-12-24T13:02:14.075Z,13.10
2022-12-24T13:05:00.551Z,13.10
2022-12-24T13:07:36.010Z,13.10
2022-12-24T13:10:05.480Z,13.00
2022-12-24T13:12:57.927Z,13.10
2022-12-24T13:15:40.710Z,13.10
2022-12-24T13:18:44.161Z,13.10
2022-12-24T13:21:22.124Z,13.10
2022-12-24T13:23:50.426Z,13.10
2022-12-24T13:26:18.628Z,13.10
2022-12-24T13:28:46.150Z,13.10
2022-12-24T13:31:25.567Z,13.10
2022-12-24T13:33:56.064Z,13.10
2022-12-24T13:36:24.130Z,13.10
2022-12-24T13:38:58.563Z,13.10
2022-12-24T13:41:39.265Z,13.20
2022-12-24T13:44:07.655Z,13.10
2022-12-24T13:47:00.705Z,13.10
2022-12-24T13:49:41.025Z,13.20
2022-12-24T13:52:11.548Z,13.10
2022-12-24T13:55:06.963Z,13.10
2022-12-24T13:57:37.405Z,13.10
2022-12-24T14:00:22.484Z,13.10
2022-12-24T14:02:58.302Z,13.10
2022-12-24T14:05:29.326Z,13.10
2022-12-24T14:07:58.695Z,13.10
2022-12-24T14:10:34.022Z,13.10
2022-12-24T14:13:01.876Z,13.10
2022-12-24T14:15:48.473Z,13.00
2022-12-24T14:18:21.402Z,13.00
2022-12-24T14:20:52.475Z,13.00
2022-12-24T14:23:30.835Z,13.00
2022-12-24T14:26:00.727Z,13.00
2022-12-24T14:28:39.300Z,13.00
2022-12-24T14:31:15.357Z,13.00
2022-12-24T14:33:43.602Z,12.90
2022-12-24T14:36:14.121Z,12.90
2022-12-24T14:38:44.265Z,12.90
2022-12-24T14:41:20.311Z,12.90
2022-12-24T14:44:07.448Z,12.90
2022-12-24T14:47:10.722Z,12.90
2022-12-24T14:50:09.914Z,12.90
2022-12-24T14:53:04.545Z,12.80
2022-12-24T14:55:41.897Z,12.80
2022-12-24T14:58:20.901Z,12.80
2022-12-24T15:00:48.956Z,12.80
2022-12-24T15:03:19.121Z,12.70
2022-12-24T15:05:59.342Z,12.70
2022-12-24T15:08:33.627Z,12.70
2022-12-24T15:11:05.676Z,12.70
2022-12-24T15:13:38.648Z,12.70
2022-12-24T15:16:11.373Z,12.70
2022-12-24T15:18:48.352Z,12.60
2022-12-24T15:21:21.138Z,12.70
2022-12-24T15:23:51.503Z,12.60
2022-12-24T15:26:37.311Z,12.60
2022-12-24T15:29:23.103Z,12.60
2022-12-24T15:32:02.270Z,12.60
2022-12-24T15:34:35.608Z,12.60
2022-12-24T15:37:07.105Z,12.50
2022-12-24T15:39:34.751Z,12.50
2022-12-24T15:42:14.740Z,12.50
2022-12-24T15:44:48.932Z,12.50
2022-12-24T15:47:19.766Z,12.40
2022-12-24T15:49:50.107Z,12.40
2022-12-24T15:52:24.389Z,12.40
2022-12-24T15:54:57.632Z,12.40
2022-12-24T15:57:33.595Z,12.30
2022-12-24T16:00:02.833Z,12.30
2022-12-24T16:02:46.877Z,12.20
2022-12-24T16:05:26.144Z,12.20
2022-12-24T16:08:12.863Z,12.20
2022-12-24T16:10:47.140Z,12.20
2022-12-24T16:13:24.755Z,12.10
2022-12-24T16:16:03.198Z,12.10
2022-12-24T16:18:38.000Z,12.10
2022-12-24T16:21:07.502Z,12.10
2022-12-24T16:23:46.319Z,12.10
2022-12-24T16:26:14.053Z,12.10
2022-12-24T16:28:41.551Z,12.00
2022-12-24T16:31:19.112Z,12.00
2022-12-24T16:33:47.442Z,11.90
2022-12-24T16:36:15.069Z,11.90
2022-12-24T16:39:01.309Z,11.90
2022-12-24T16:41:28.896Z,11.90
2022-12-24T16:43:56.577Z,11.90
2022-12-24T16:46:24.135Z,11.80
2022-12-24T16:48:51.779Z,11.80
2022-12-24T16:51:19.201Z,11.70
2022-12-24T16:53:46.800Z,11.80
2022-12-24T16:56:14.225Z,11.70
2022-12-24T16:58:41.917Z,11.70
2022-12-24T17:01:10.006Z,11.70
2022-12-24T17:03:37.763Z,11.70
2022-12-24T17:06:06.370Z,11.80
2022-12-24T17:08:33.739Z,11.70
2022-12-24T17:11:01.146Z,11.80
2022-12-24T17:13:28.942Z,11.80
2022-12-24T17:15:56.474Z,11.80
2022-12-24T17:18:23.980Z,11.80
2022-12-24T17:21:01.964Z,11.80
2022-12-24T17:23:29.506Z,11.80
2022-12-24T17:25:58.045Z,11.80
2022-12-24T17:28:25.671Z,11.80
2022-12-24T17:30:53.174Z,11.80
2022-12-24T17:33:20.644Z,11.90
2022-12-24T17:35:49.222Z,11.90
2022-12-24T17:38:16.716Z,11.90
2022-12-24T17:40:44.515Z,11.90
2022-12-24T17:43:12.340Z,12.00
2022-12-24T17:45:41.856Z,12.00
2022-12-24T17:48:09.792Z,12.00
2022-12-24T17:50:40.380Z,12.00
2022-12-24T17:53:08.162Z,12.00
2022-12-24T17:55:40.193Z,12.00
2022-12-24T17:58:08.117Z,12.00
2022-12-24T18:00:35.619Z,12.00
2022-12-24T18:03:03.377Z,12.00
2022-12-24T18:05:33.223Z,12.00
2022-12-24T18:08:00.760Z,12.00
2022-12-24T18:10:28.461Z,12.10
2022-12-24T18:12:56.051Z,12.00
2022-12-24T18:15:23.655Z,12.10
2022-12-24T18:17:52.767Z,12.10
2022-12-24T18:20:21.543Z,12.10
2022-12-24T18:22:49.309Z,12.10
2022-12-24T18:25:17.007Z,12.10
2022-12-24T18:27:44.403Z,12.10
2022-12-24T18:30:13.007Z,12.30
2022-12-24T18:32:40.667Z,12.10
2022-12-24T18:35:08.572Z,12.20
2022-12-24T18:37:36.087Z,12.20
2022-12-24T18:40:04.795Z,12.20
2022-12-24T18:42:32.469Z,12.20
2022-12-24T18:45:00.228Z,12.20
2022-12-24T18:47:27.804Z,12.20
2022-12-24T18:49:55.255Z,12.20
2022-12-24T18:52:23.068Z,12.20
2022-12-24T18:54:50.773Z,12.30
2022-12-24T18:57:18.327Z,12.20
2022-12-24T18:59:45.744Z,12.20
2022-12-24T19:02:13.666Z,12.20
2022-12-24T19:04:41.235Z,12.20
2022-12-24T19:07:08.689Z,12.20
2022-12-24T19:09:36.057Z,12.20
2022-12-24T19:12:04.448Z,12.20
2022-12-24T19:14:31.990Z,12.20
2022-12-24T19:16:59.404Z,12.20
2022-12-24T19:19:26.935Z,12.20
2022-12-24T19:21:54.472Z,12.20
2022-12-24T19:24:22.492Z,12.20
2022-12-24T19:26:50.181Z,12.20
2022-12-24T19:29:17.682Z,12.20
2022-12-24T19:31:47.410Z,12.20
2022-12-24T19:34:15.110Z,12.20
2022-12-24T19:36:42.566Z,12.20
2022-12-24T19:39:10.100Z,12.20
2022-12-24T19:41:37.489Z,12.10
2022-12-24T19:44:05.172Z,12.10
2022-12-24T19:46:34.493Z,12.10
2022-12-24T19:49:08.168Z,12.20
2022-12-24T19:51:35.934Z,12.20
2022-12-24T19:54:05.975Z,12.20
2022-12-24T19:56:33.923Z,12.20
2022-12-24T19:59:02.272Z,12.20
2022-12-24T20:01:31.793Z,12.10
2022-12-24T20:04:00.251Z,12.20
2022-12-24T20:06:32.071Z,12.20
2022-12-24T20:09:02.018Z,12.20
2022-12-24T20:11:30.204Z,12.20
2022-12-24T20:13:59.243Z,12.20
2022-12-24T20:16:29.216Z,12.20
2022-12-24T20:18:59.201Z,12.20
2022-12-24T20:21:27.636Z,12.20
2022-12-24T20:23:55.808Z,12.20
2022-12-24T20:26:26.685Z,12.20
2022-12-24T20:28:54.478Z,12.20
2022-12-24T20:31:25.441Z,12.20
2022-12-24T20:33:53.121Z,12.20
2022-12-24T20:36:22.019Z,12.20
2022-12-24T20:38:49.839Z,12.10
2022-12-24T20:41:19.923Z,12.10
2022-12-24T20:43:48.962Z,12.10
2022-12-24T20:46:19.402Z,12.10
2022-12-24T20:48:48.547Z,12.20
2022-12-24T20:51:23.872Z,12.20
2022-12-24T20:53:58.029Z,12.20
2022-12-24T20:56:26.220Z,12.20
2022-12-24T20:58:53.887Z,12.20
2022-12-24T21:01:25.090Z,12.20
2022-12-24T21:03:54.524Z,12.20
2022-12-24T21:06:23.414Z,12.20
2022-12-24T21:08:52.215Z,12.20
2022-12-24T21:11:39.535Z,12.20
2022-12-24T21:14:07.580Z,12.20
2022-12-24T21:16:36.118Z,12.20
2022-12-24T21:19:04.254Z,12.10
2022-12-24T21:21:32.389Z,12.20
2022-12-24T21:24:00.419Z,12.20
2022-12-24T21:26:27.899Z,12.10
2022-12-24T21:28:55.366Z,12.10
2022-12-24T21:31:22.921Z,12.10
2022-12-24T21:33:50.341Z,12.10
2022-12-24T21:36:17.929Z,12.10
2022-12-24T21:38:45.507Z,12.10
2022-12-24T21:41:15.952Z,12.10
2022-12-24T21:43:44.451Z,12.20
2022-12-24T21:46:19.341Z,12.20
2022-12-24T21:49:05.487Z,12.20
2022-12-24T21:51:33.233Z,12.20
2022-12-24T21:54:19.481Z,12.20
2022-12-24T21:57:05.523Z,12.20
2022-12-24T21:59:33.125Z,12.20
2022-12-24T22:02:01.090Z,12.20
2022-12-24T22:04:30.088Z,12.20
2022-12-24T22:07:17.768Z,12.20
2022-12-24T22:10:03.984Z,12.20
2022-12-24T22:12:33.260Z,12.20
2022-12-24T22:15:01.008Z,12.20
2022-12-24T22:17:28.655Z,12.20
2022-12-24T22:19:56.226Z,12.20
2022-12-24T22:22:24.457Z,12.20
2022-12-24T22:24:52.258Z,12.20
2022-12-24T22:27:20.040Z,12.30
2022-12-24T22:29:47.578Z,12.30
2022-12-24T22:32:15.250Z,12.20
2022-12-24T22:34:42.878Z,12.30
2022-12-24T22:37:10.315Z,12.30
2022-12-24T22:39:39.047Z,12.30
2022-12-24T22:42:06.641Z,12.30
2022-12-24T22:44:34.507Z,12.30
2022-12-24T22:47:02.068Z,12.30
2022-12-24T22:49:29.631Z,12.30
2022-12-24T22:51:58.045Z,12.30
2022-12-24T22:54:25.590Z,12.30
2022-12-24T22:56:53.383Z,12.30
2022-12-24T22:59:20.827Z,12.40
2022-12-24T23:01:48.843Z,12.30
2022-12-24T23:04:16.696Z,12.40
2022-12-24T23:06:44.709Z,12.40
2022-12-24T23:09:15.776Z,12.40
2022-12-24T23:11:44.157Z,12.40
2022-12-24T23:14:49.125Z,12.40
2022-12-24T23:17:16.713Z,12.40
2022-12-24T23:19:44.367Z,12.40
2022-12-24T23:22:12.049Z,12.40
2022-12-24T23:24:40.966Z,12.40
2022-12-24T23:27:08.589Z,12.40
2022-12-24T23:29:36.198Z,12.40
2022-12-24T23:32:03.870Z,12.40
2022-12-24T23:34:32.608Z,12.40
2022-12-24T23:37:00.415Z,12.40
2022-12-24T23:39:27.845Z,12.40
2022-12-24T23:41:55.403Z,12.40
2022-12-24T23:44:28.253Z,12.40
2022-12-24T23:46:59.556Z,12.40
2022-12-24T23:49:27.644Z,12.40
2022-12-24T23:51:55.096Z,12.50
2022-12-24T23:54:22.605Z,12.40
2022-12-24T23:56:50.057Z,12.40
2022-12-24T23:59:17.454Z,12.40
